Campanya meteocatpedra

Dades de l'estació automàtica Aitona

?
?
Resum diari 21:30 TU
Dades diàries de l'estació meteorològica
Temperatura mitjana 17.6 °C
Temperatura màxima 21.7 °C 13:49 TU
Temperatura mínima 15.4 °C 21:54 TU
Humitat relativa mitjana 94%
Precipitació acumulada 33.6 mm
Ratxa màxima del vent (2 m) 15.1 km/h - 38º 6:34 TU
Irradiació solar global 4.3 MJ/m2

El tram horari està expressat en Temps Universal (TU). Cal sumar una hora en horari d'hivern i dues en horari d'estiu per passar a l'hora oficial.

Aitona

Metadades estació meteorol´gica
Municipi Aitona
Comarca Segrià
Altitud 97 m
Data alta 12.03.1998
Estat actual Operativa
Dades de període
Període
TU
TM
°C
TX
°C
TN
°C
HRM
%
PPT
mm
VVM (2 m)
km/h
DVM (2 m)
graus
VVX (2 m)
km/h
RS
W/m2
00:00 - 00:30 16.3 16.3 16.3 97 0.0 1.4 213 3.6 0
00:30 - 01:00 16.2 16.3 16.1 97 0.0 0.0 235 1.4 0
01:00 - 01:30 16.1 16.2 16.0 98 0.0 0.4 72 2.9 0
01:30 - 02:00 16.0 16.2 16.0 98 0.2 0.4 90 2.2 0
02:00 - 02:30 16.0 16.0 16.0 98 0.1 0.0 213 1.8 0
02:30 - 03:00 16.0 16.0 15.9 98 1.0 0.4 185 2.9 0
03:00 - 03:30 16.0 16.0 15.9 98 1.8 1.1 209 3.2 0
03:30 - 04:00 16.0 16.0 15.9 98 1.0 0.7 298 4.3 0
04:00 - 04:30 15.9 16.0 15.9 98 0.2 1.1 55 3.6 0
04:30 - 05:00 15.9 16.0 15.8 98 0.1 1.4 36 4.7 0
05:00 - 05:30 15.9 16.0 15.8 98 0.1 2.5 44 7.9 0
05:30 - 06:00 16.0 16.1 16.0 98 0.3 6.5 30 11.9 0
06:00 - 06:30 16.1 16.2 16.0 96 0.6 6.8 30 12.6 0
06:30 - 07:00 16.1 16.2 16.0 95 0.8 7.9 30 15.1 5
07:00 - 07:30 16.0 16.1 16.0 95 1.7 7.6 29 14.0 8
07:30 - 08:00 16.2 16.3 16.1 96 1.3 3.2 44 13.3 17
08:00 - 08:30 16.6 16.9 16.3 96 0.2 4.7 25 10.8 81
08:30 - 09:00 17.0 17.3 16.9 94 0.4 5.0 36 9.4 111
09:00 - 09:30 17.4 17.6 17.2 94 0.4 2.2 37 7.6 111
09:30 - 10:00 17.6 17.6 17.5 94 1.5 4.0 28 6.8 90
10:00 - 10:30 17.7 17.9 17.6 94 1.1 2.9 23 7.2 126
10:30 - 11:00 18.3 18.7 17.9 93 0.0 1.1 360 4.3 217
11:00 - 11:30 18.9 19.2 18.6 90 0.0 2.5 356 7.2 231
11:30 - 12:00 19.3 19.4 19.0 87 0.1 3.6 20 7.6 248
12:00 - 12:30 19.7 19.9 19.5 85 0.0 1.4 6 4.7 188
12:30 - 13:00 20.1 20.3 19.9 84 0.0 1.4 345 4.7 226
13:00 - 13:30 20.8 21.2 20.4 81 0.0 1.8 8 5.0 284
13:30 - 14:00 21.4 21.7 21.1 78 0.0 0.4 188 2.5 180
14:00 - 14:30 20.5 21.2 20.0 88 0.0 1.4 185 3.6 81
14:30 - 15:00 20.0 20.0 19.9 90 0.0 1.4 205 6.1 69
15:00 - 15:30 19.9 19.9 19.8 92 0.0 1.1 219 3.2 52
15:30 - 16:00 19.7 19.8 19.6 93 0.0 0.4 194 2.2 41
16:00 - 16:30 19.6 19.7 19.3 94 0.0 0.0 180 2.2 27
16:30 - 17:00 19.1 19.3 18.8 94 0.0 0.7 178 4.7 10
17:00 - 17:30 18.9 19.0 18.7 95 0.4 0.4 214 2.9 0
17:30 - 18:00 18.6 18.7 18.4 96 0.5 0.7 215 3.2 0
18:00 - 18:30 18.4 18.5 18.2 96 0.4 1.1 164 4.7 0
18:30 - 19:00 18.0 18.2 17.8 97 0.4 1.1 213 7.2 0
19:00 - 19:30 17.8 17.9 17.7 97 0.0 1.4 234 4.0 0
19:30 - 20:00 17.8 17.9 17.4 95 1.3 1.4 263 7.9 0
20:00 - 20:30 17.0 17.4 16.6 93 0.2 3.2 204 8.3 0
20:30 - 21:00 16.2 16.5 15.9 93 0.4 2.5 209 5.8 0
21:00 - 21:30 16.0 16.1 15.8 95 6.7 2.5 257 5.8 0
21:30 - 22:00 15.6 15.8 15.4 96 10.4 2.2 261 7.9 0
22:00 - 22:30 (s/d) (s/d) (s/d) (s/d) (s/d) (s/d) (s/d) (s/d) (s/d)

Les dades en taronja només han passat un control de qualitat automàtic. Resta pendent la seva validació definitiva.